createdAt,value
2023-04-20T00:00:22.363Z,9.10
2023-04-20T00:03:12.981Z,9.11
2023-04-20T00:05:41.877Z,9.13
2023-04-20T00:08:10.853Z,9.10
2023-04-20T00:10:39.861Z,9.10
2023-04-20T00:13:08.531Z,9.11
2023-04-20T00:15:37.306Z,9.10
2023-04-20T00:18:06.295Z,9.07
2023-04-20T00:20:35.512Z,9.06
2023-04-20T00:23:04.824Z,9.05
2023-04-20T00:25:33.572Z,9.03
2023-04-20T00:28:02.287Z,9.00
2023-04-20T00:30:31.366Z,9.02
2023-04-20T00:33:00.124Z,9.01
2023-04-20T00:35:28.992Z,9.00
2023-04-20T00:37:57.752Z,9.01
2023-04-20T00:40:27.598Z,8.98
2023-04-20T00:42:56.297Z,8.96
2023-04-20T00:45:25.651Z,8.97
2023-04-20T00:47:54.377Z,8.97
2023-04-20T00:50:23.208Z,9.00
2023-04-20T00:52:51.961Z,9.01
2023-04-20T00:55:21.725Z,8.99
2023-04-20T00:57:50.636Z,9.01
2023-04-20T01:00:20.471Z,9.02
2023-04-20T01:02:50.871Z,9.05
2023-04-20T01:05:20.991Z,9.05
2023-04-20T01:07:50.312Z,9.04
2023-04-20T01:10:19.159Z,9.02
2023-04-20T01:12:47.914Z,9.03
2023-04-20T01:15:16.855Z,9.04
2023-04-20T01:17:45.872Z,9.05
2023-04-20T01:20:15.199Z,9.01
2023-04-20T01:22:49.780Z,9.04
2023-04-20T01:25:18.886Z,9.03
2023-04-20T01:27:48.528Z,9.03
2023-04-20T01:30:17.556Z,9.06
2023-04-20T01:32:46.516Z,9.10
2023-04-20T01:35:16.431Z,9.13
2023-04-20T01:37:46.891Z,9.14
2023-04-20T01:40:16.345Z,9.15
2023-04-20T01:42:45.192Z,9.18
2023-04-20T01:45:13.924Z,9.18
2023-04-20T01:47:42.683Z,9.20
2023-04-20T01:50:11.882Z,9.22
2023-04-20T01:52:40.568Z,9.22
2023-04-20T01:55:11.900Z,9.21
2023-04-20T01:57:40.619Z,9.22
2023-04-20T02:00:10.692Z,9.21
2023-04-20T02:02:45.737Z,9.23
2023-04-20T02:05:14.652Z,9.23
2023-04-20T02:07:43.520Z,9.26
2023-04-20T02:10:12.271Z,9.25
2023-04-20T02:12:40.965Z,9.26
2023-04-20T02:15:10.343Z,9.23
2023-04-20T02:17:39.115Z,9.24
2023-04-20T02:20:09.657Z,9.23
2023-04-20T02:22:39.140Z,9.24
2023-04-20T02:25:10.075Z,9.26
2023-04-20T02:27:39.085Z,9.31
2023-04-20T02:30:08.884Z,9.32
2023-04-20T02:32:37.790Z,9.29
2023-04-20T02:35:06.926Z,9.27
2023-04-20T02:37:35.728Z,9.30
2023-04-20T02:40:08.420Z,9.31
2023-04-20T02:42:37.181Z,9.38
2023-04-20T02:45:09.367Z,9.40
2023-04-20T02:47:38.222Z,9.34
2023-04-20T02:50:08.782Z,9.35
2023-04-20T02:52:47.082Z,9.32
2023-04-20T02:55:16.304Z,9.34
2023-04-20T02:57:46.157Z,9.35
2023-04-20T03:00:15.867Z,9.37
2023-04-20T03:02:58.963Z,9.36
2023-04-20T03:05:28.160Z,9.35
2023-04-20T03:07:57.390Z,9.31
2023-04-20T03:10:27.105Z,9.31
2023-04-20T03:13:01.024Z,9.31
2023-04-20T03:15:37.214Z,9.29
2023-04-20T03:18:27.630Z,9.27
2023-04-20T03:20:56.405Z,9.26
2023-04-20T03:23:25.329Z,9.27
2023-04-20T03:25:54.305Z,9.24
2023-04-20T03:28:54.425Z,9.22
2023-04-20T03:31:26.011Z,9.22
2023-04-20T03:33:55.935Z,9.20
2023-04-20T03:36:25.043Z,9.18
2023-04-20T03:38:53.752Z,9.21
2023-04-20T03:41:22.739Z,9.23
2023-04-20T03:43:51.581Z,9.20
2023-04-20T03:46:22.088Z,9.17
2023-04-20T03:48:52.104Z,9.11
2023-04-20T03:51:20.916Z,9.11
2023-04-20T03:53:49.657Z,9.12
2023-04-20T03:56:18.447Z,9.14
2023-04-20T03:58:47.321Z,9.20
2023-04-20T04:01:19.728Z,9.15
2023-04-20T04:03:50.991Z,9.15
2023-04-20T04:06:20.067Z,9.23
2023-04-20T04:08:49.049Z,9.24
2023-04-20T04:11:17.750Z,9.27
2023-04-20T04:13:46.515Z,9.34
2023-04-20T04:16:15.393Z,9.34
2023-04-20T04:18:44.831Z,9.29
2023-04-20T04:21:13.678Z,9.25
2023-04-20T04:23:44.639Z,9.22
2023-04-20T04:26:58.691Z,9.30
2023-04-20T04:29:28.165Z,9.28
2023-04-20T04:31:59.892Z,9.28
2023-04-20T04:34:29.973Z,9.27
2023-04-20T04:36:59.001Z,9.24
2023-04-20T04:39:34.847Z,9.32
2023-04-20T04:42:15.393Z,9.31
2023-04-20T04:44:45.394Z,9.28
2023-04-20T04:47:20.349Z,9.21
2023-04-20T04:49:50.838Z,9.19
2023-04-20T04:52:20.028Z,9.17
2023-04-20T04:54:49.788Z,9.21
2023-04-20T04:57:18.850Z,9.20
2023-04-20T04:59:50.202Z,9.15
2023-04-20T05:02:22.229Z,9.14
2023-04-20T05:04:51.298Z,9.18
2023-04-20T05:07:20.137Z,9.19
2023-04-20T05:09:48.878Z,9.05
2023-04-20T05:12:17.643Z,9.12
2023-04-20T05:14:46.331Z,9.10
2023-04-20T05:17:15.104Z,9.09
2023-04-20T05:19:43.802Z,9.12
2023-04-20T05:22:12.521Z,9.11
2023-04-20T05:24:42.459Z,9.14
2023-04-20T05:27:11.595Z,9.08
2023-04-20T05:29:40.333Z,9.10
2023-04-20T05:32:09.200Z,9.06
2023-04-20T05:34:37.980Z,9.03
2023-04-20T05:37:06.718Z,9.18
2023-04-20T05:39:35.520Z,9.14
2023-04-20T05:42:04.322Z,9.13
2023-04-20T05:44:34.117Z,9.05
2023-04-20T05:47:09.091Z,9.10
2023-04-20T05:49:37.780Z,9.15
2023-04-20T05:52:06.672Z,9.07
2023-04-20T05:54:35.343Z,9.12
2023-04-20T05:57:05.518Z,9.23
2023-04-20T05:59:34.224Z,9.15
2023-04-20T06:02:03.039Z,9.25
2023-04-20T06:04:32.609Z,9.23
2023-04-20T06:07:01.557Z,9.26
2023-04-20T06:09:30.438Z,9.34
2023-04-20T06:12:00.454Z,9.31
2023-04-20T06:14:29.090Z,9.43
2023-04-20T06:16:57.857Z,9.46
2023-04-20T06:19:26.642Z,9.59
2023-04-20T06:21:55.339Z,9.57
2023-04-20T06:24:24.424Z,9.56
2023-04-20T06:26:53.147Z,9.47
2023-04-20T06:29:21.837Z,9.56
2023-04-20T06:31:50.628Z,9.50
2023-04-20T06:34:19.331Z,9.56
2023-04-20T06:36:48.005Z,9.47
2023-04-20T06:39:17.772Z,9.61
2023-04-20T06:41:46.597Z,9.67
2023-04-20T06:44:16.281Z,9.69
2023-04-20T06:46:44.963Z,9.60
2023-04-20T06:49:13.680Z,9.69
2023-04-20T06:51:42.352Z,9.55
2023-04-20T06:54:11.122Z,9.62
2023-04-20T06:56:39.794Z,9.62
2023-04-20T06:59:08.459Z,9.65
2023-04-20T07:01:37.481Z,9.72
2023-04-20T07:04:06.618Z,9.54
2023-04-20T07:06:35.432Z,9.68
2023-04-20T07:09:05.171Z,9.64
2023-04-20T07:11:33.875Z,9.58
2023-04-20T07:14:02.640Z,9.68
2023-04-20T07:16:31.369Z,9.64
2023-04-20T07:19:00.045Z,9.58
2023-04-20T07:21:28.753Z,9.70
2023-04-20T07:23:59.225Z,9.65
2023-04-20T07:26:28.031Z,9.74
2023-04-20T07:28:56.730Z,9.74
2023-04-20T07:31:25.624Z,10.11
2023-04-20T07:33:54.335Z,10.12
2023-04-20T07:36:23.272Z,10.17
2023-04-20T07:38:51.965Z,10.41
2023-04-20T07:41:23.196Z,10.53
2023-04-20T07:43:51.907Z,10.66
2023-04-20T07:46:24.257Z,10.77
2023-04-20T07:48:52.971Z,10.78
2023-04-20T07:51:21.723Z,10.89
2023-04-20T07:53:50.517Z,10.89
2023-04-20T07:56:19.380Z,10.85
2023-04-20T07:58:48.059Z,10.69
2023-04-20T08:01:16.789Z,10.69
2023-04-20T08:03:45.814Z,10.65
2023-04-20T08:06:14.610Z,10.63
2023-04-20T08:08:43.343Z,10.53
2023-04-20T08:11:12.835Z,10.48
2023-04-20T08:13:41.900Z,10.67
2023-04-20T08:16:10.681Z,10.68
2023-04-20T08:18:39.420Z,10.71
2023-04-20T08:21:08.114Z,10.76
2023-04-20T08:23:36.882Z,10.66
2023-04-20T08:26:05.716Z,10.59
2023-04-20T08:28:34.742Z,10.77
2023-04-20T08:31:03.457Z,10.75
2023-04-20T08:33:32.626Z,10.70
2023-04-20T08:36:01.671Z,10.84
2023-04-20T08:38:34.091Z,10.98
2023-04-20T08:41:03.458Z,10.87
2023-04-20T08:43:32.811Z,10.84
2023-04-20T08:46:03.128Z,10.93
2023-04-20T08:48:37.170Z,10.95
2023-04-20T08:51:06.272Z,11.02
2023-04-20T08:53:34.983Z,10.88
2023-04-20T08:56:03.995Z,10.95
2023-04-20T08:58:33.205Z,10.89
2023-04-20T09:01:01.878Z,10.85
2023-04-20T09:03:56.810Z,10.77
2023-04-20T09:06:25.738Z,10.96
2023-04-20T09:08:55.498Z,10.93
2023-04-20T09:11:29.861Z,10.97
2023-04-20T09:14:04.786Z,11.06
2023-04-20T09:16:37.674Z,10.94
2023-04-20T09:19:08.862Z,11.00
2023-04-20T09:21:38.000Z,10.96
2023-04-20T09:24:07.317Z,10.91
2023-04-20T09:26:37.011Z,10.89
2023-04-20T09:29:24.224Z,10.88
2023-04-20T09:31:53.185Z,10.68
2023-04-20T09:34:24.049Z,10.84
2023-04-20T09:36:54.890Z,10.99
2023-04-20T09:39:25.271Z,11.01
2023-04-20T09:41:54.049Z,11.00
2023-04-20T09:44:22.729Z,11.11
2023-04-20T09:46:52.005Z,11.18
2023-04-20T09:49:21.578Z,11.19
2023-04-20T09:51:50.344Z,11.30
2023-04-20T09:54:20.215Z,11.29
2023-04-20T09:56:49.797Z,11.23
2023-04-20T09:59:19.846Z,11.28
2023-04-20T10:01:48.975Z,11.35
2023-04-20T10:04:18.257Z,11.39
2023-04-20T10:07:03.803Z,11.31
2023-04-20T10:09:34.527Z,11.37
2023-04-20T10:12:08.497Z,11.55
2023-04-20T10:14:37.460Z,11.60
2023-04-20T10:17:09.388Z,11.51
2023-04-20T10:19:46.181Z,11.59
2023-04-20T10:22:35.649Z,11.45
2023-04-20T10:25:19.601Z,11.58
2023-04-20T10:28:04.810Z,11.48
2023-04-20T10:30:36.287Z,11.55
2023-04-20T10:33:11.516Z,11.63
2023-04-20T10:35:55.131Z,11.80
2023-04-20T10:38:35.193Z,12.06
2023-04-20T10:41:12.432Z,12.09
2023-04-20T10:43:43.489Z,11.91
2023-04-20T10:46:19.367Z,11.97
2023-04-20T10:48:55.296Z,11.97
2023-04-20T10:51:25.480Z,11.85
2023-04-20T10:54:07.940Z,11.76
2023-04-20T10:56:57.369Z,11.70
2023-04-20T10:59:29.285Z,11.62
2023-04-20T11:02:01.564Z,11.48
2023-04-20T11:04:34.681Z,11.51
2023-04-20T11:07:11.287Z,11.47
2023-04-20T11:09:42.597Z,11.43
2023-04-20T11:12:16.226Z,11.48
2023-04-20T11:15:03.030Z,11.54
2023-04-20T11:17:37.505Z,11.64
2023-04-20T11:20:09.300Z,11.67
2023-04-20T11:22:39.807Z,11.78
2023-04-20T11:25:11.106Z,11.77
2023-04-20T11:27:40.278Z,11.77
2023-04-20T11:30:10.055Z,11.82
2023-04-20T11:32:39.448Z,11.83
2023-04-20T11:35:11.172Z,11.89
2023-04-20T11:37:47.708Z,11.86
2023-04-20T11:40:16.451Z,11.97
2023-04-20T11:42:46.552Z,12.00
2023-04-20T11:45:16.390Z,12.05
2023-04-20T11:47:46.069Z,12.04
2023-04-20T11:50:15.040Z,12.15
2023-04-20T11:52:44.060Z,12.20
2023-04-20T11:55:12.909Z,12.18
2023-04-20T11:57:41.563Z,12.15
2023-04-20T12:00:10.989Z,12.17
2023-04-20T12:02:42.542Z,12.25
2023-04-20T12:05:11.963Z,12.18
2023-04-20T12:07:40.858Z,12.10
2023-04-20T12:10:09.776Z,12.02
2023-04-20T12:12:38.650Z,12.01
2023-04-20T12:15:08.389Z,11.83
2023-04-20T12:17:37.174Z,11.81
2023-04-20T12:20:12.166Z,11.78
2023-04-20T12:22:41.189Z,11.69
2023-04-20T12:25:10.249Z,11.68
2023-04-20T12:27:39.012Z,11.62
2023-04-20T12:30:09.478Z,11.54
2023-04-20T12:32:38.255Z,11.49
2023-04-20T12:35:08.687Z,11.49
2023-04-20T12:37:37.380Z,11.42
2023-04-20T12:40:07.766Z,11.36
2023-04-20T12:42:36.521Z,11.37
2023-04-20T12:45:05.982Z,11.38
2023-04-20T12:47:34.766Z,11.33
2023-04-20T12:50:04.402Z,11.29
2023-04-20T12:52:33.870Z,11.24
2023-04-20T12:55:03.694Z,11.18
2023-04-20T12:57:32.430Z,11.10
2023-04-20T13:00:03.407Z,11.10
2023-04-20T13:02:35.717Z,11.06
2023-04-20T13:05:04.939Z,11.03
2023-04-20T13:07:34.253Z,11.02
2023-04-20T13:10:03.867Z,11.02
2023-04-20T13:12:32.607Z,10.96
2023-04-20T13:15:01.347Z,11.02
2023-04-20T13:17:30.113Z,11.01
2023-04-20T13:19:58.852Z,11.01
2023-04-20T13:22:27.705Z,10.97
2023-04-20T13:24:56.449Z,11.02
2023-04-20T13:27:25.195Z,10.91
2023-04-20T13:29:53.899Z,10.98
2023-04-20T13:32:22.713Z,10.99
2023-04-20T13:34:51.577Z,10.92
2023-04-20T13:37:20.367Z,10.91
2023-04-20T13:39:49.068Z,10.76
2023-04-20T13:42:17.903Z,10.54
2023-04-20T13:44:46.665Z,10.45
2023-04-20T13:47:15.369Z,10.33
2023-04-20T13:49:44.089Z,10.16
2023-04-20T13:52:12.790Z,10.11
2023-04-20T13:54:42.474Z,9.95
2023-04-20T13:57:11.501Z,9.93
2023-04-20T13:59:40.282Z,9.89
2023-04-20T14:02:10.281Z,9.82
2023-04-20T14:04:40.177Z,9.73
2023-04-20T14:07:08.872Z,9.72
2023-04-20T14:09:37.581Z,9.67
2023-04-20T14:12:06.534Z,9.72
2023-04-20T14:14:35.219Z,9.69
2023-04-20T14:17:04.106Z,9.68
2023-04-20T14:19:32.881Z,9.72
2023-04-20T14:22:01.658Z,9.76
2023-04-20T14:24:30.317Z,9.82
2023-04-20T14:27:00.151Z,9.88
2023-04-20T14:29:29.049Z,9.84
2023-04-20T14:31:57.849Z,9.80
2023-04-20T14:34:26.796Z,9.73
2023-04-20T14:36:55.452Z,9.75
2023-04-20T14:39:24.122Z,9.66
2023-04-20T14:41:53.022Z,9.62
2023-04-20T14:44:21.766Z,9.66
2023-04-20T14:46:50.770Z,9.76
2023-04-20T14:49:19.682Z,9.64
2023-04-20T14:51:48.505Z,9.70
2023-04-20T14:54:17.391Z,9.75
2023-04-20T14:56:46.228Z,9.89
2023-04-20T14:59:15.000Z,9.92
2023-04-20T15:01:58.683Z,9.92
2023-04-20T15:04:30.612Z,10.00
2023-04-20T15:06:59.614Z,9.98
2023-04-20T15:09:28.410Z,9.82
2023-04-20T15:11:57.179Z,9.76
2023-04-20T15:14:25.964Z,9.77
2023-04-20T15:16:55.253Z,9.75
2023-04-20T15:19:24.201Z,9.66
2023-04-20T15:21:52.953Z,9.73
2023-04-20T15:24:21.657Z,9.70
2023-04-20T15:26:50.523Z,9.62
2023-04-20T15:29:19.217Z,9.67
2023-04-20T15:31:48.045Z,9.57
2023-04-20T15:34:17.663Z,9.49
2023-04-20T15:36:46.772Z,9.52
2023-04-20T15:39:16.126Z,9.58
2023-04-20T15:41:44.860Z,9.54
2023-04-20T15:44:13.777Z,9.49
2023-04-20T15:46:42.508Z,9.37
2023-04-20T15:49:11.164Z,9.23
2023-04-20T15:51:40.344Z,9.24
2023-04-20T15:54:09.949Z,9.18
2023-04-20T15:56:38.685Z,9.11
2023-04-20T15:59:07.352Z,9.06
2023-04-20T16:01:36.183Z,9.08
2023-04-20T16:04:05.292Z,9.09
2023-04-20T16:06:37.025Z,9.06
2023-04-20T16:09:07.147Z,8.97
2023-04-20T16:11:35.960Z,8.90
2023-04-20T16:14:04.739Z,8.85
2023-04-20T16:16:33.761Z,8.74
2023-04-20T16:19:02.641Z,8.69
2023-04-20T16:21:31.683Z,8.67
2023-04-20T16:24:01.006Z,8.64
2023-04-20T16:26:30.047Z,8.63
2023-04-20T16:28:59.566Z,8.61
2023-04-20T16:31:29.717Z,8.58
2023-04-20T16:33:59.133Z,8.57
2023-04-20T16:36:28.180Z,8.56
2023-04-20T16:38:57.202Z,8.54
2023-04-20T16:41:26.213Z,8.55
2023-04-20T16:43:55.048Z,8.55
2023-04-20T16:46:23.746Z,8.51
2023-04-20T16:48:54.672Z,8.56
2023-04-20T16:51:23.741Z,8.61
2023-04-20T16:53:53.161Z,8.63
2023-04-20T16:56:22.522Z,8.63
2023-04-20T16:58:51.300Z,8.62
2023-04-20T17:01:20.210Z,8.62
2023-04-20T17:03:49.257Z,8.62
2023-04-20T17:06:18.177Z,8.60
2023-04-20T17:08:47.484Z,8.60
2023-04-20T17:11:18.545Z,8.52
2023-04-20T17:13:47.410Z,8.50
2023-04-20T17:16:16.232Z,8.49
2023-04-20T17:18:45.081Z,8.50
2023-04-20T17:21:13.978Z,8.44
2023-04-20T17:23:42.885Z,8.43
2023-04-20T17:26:14.533Z,8.48
2023-04-20T17:28:44.794Z,8.49
2023-04-20T17:31:13.579Z,8.49
2023-04-20T17:33:43.565Z,8.51
2023-04-20T17:36:12.237Z,8.49
2023-04-20T17:38:40.931Z,8.52
2023-04-20T17:41:09.716Z,8.56
2023-04-20T17:43:40.625Z,8.56
2023-04-20T17:46:09.442Z,8.62
2023-04-20T17:48:38.266Z,8.64
2023-04-20T17:51:06.944Z,8.62
2023-04-20T17:53:35.658Z,8.58
2023-04-20T17:56:06.456Z,8.60
2023-04-20T17:58:35.145Z,8.53
2023-04-20T18:01:03.968Z,8.52
2023-04-20T18:03:33.014Z,8.50
2023-04-20T18:06:02.671Z,8.47
2023-04-20T18:08:31.412Z,8.46
2023-04-20T18:11:02.222Z,8.50
2023-04-20T18:13:30.969Z,8.44
2023-04-20T18:16:07.229Z,8.41
2023-04-20T18:18:36.039Z,8.43
2023-04-20T18:21:05.016Z,8.33
2023-04-20T18:23:33.791Z,8.36
2023-04-20T18:26:02.609Z,8.34
2023-04-20T18:28:31.347Z,8.27
2023-04-20T18:31:01.122Z,8.25
2023-04-20T18:33:30.165Z,8.21
2023-04-20T18:35:58.860Z,8.20
2023-04-20T18:38:27.586Z,8.12
2023-04-20T18:40:56.285Z,8.16
2023-04-20T18:43:25.118Z,8.16
2023-04-20T18:45:53.849Z,8.15
2023-04-20T18:48:22.584Z,8.07
2023-04-20T18:50:51.265Z,8.05
2023-04-20T18:53:20.092Z,8.05
2023-04-20T18:55:48.812Z,8.04
2023-04-20T18:58:17.504Z,8.00
2023-04-20T19:00:46.217Z,7.94
2023-04-20T19:03:15.827Z,7.90
2023-04-20T19:05:45.922Z,7.93
2023-04-20T19:08:15.705Z,7.92
2023-04-20T19:10:45.172Z,7.95
2023-04-20T19:13:17.871Z,7.94
2023-04-20T19:15:47.408Z,7.94
2023-04-20T19:18:16.787Z,7.94
2023-04-20T19:20:45.696Z,7.93
2023-04-20T19:23:14.375Z,7.94
2023-04-20T19:25:43.137Z,7.95
2023-04-20T19:28:12.285Z,7.94
2023-04-20T19:30:41.281Z,7.93
2023-04-20T19:33:10.124Z,7.92
2023-04-20T19:35:38.971Z,7.91
2023-04-20T19:38:07.668Z,7.91
2023-04-20T19:40:36.419Z,7.90
2023-04-20T19:43:05.195Z,7.88
2023-04-20T19:45:34.630Z,7.88
2023-04-20T19:48:03.889Z,7.87
2023-04-20T19:50:32.821Z,7.84
2023-04-20T19:53:01.930Z,7.79
2023-04-20T19:55:30.722Z,7.79
2023-04-20T19:57:59.469Z,7.79
2023-04-20T20:00:28.227Z,7.72
2023-04-20T20:02:57.006Z,7.70
2023-04-20T20:05:25.837Z,7.70
2023-04-20T20:07:54.583Z,7.71
2023-04-20T20:10:23.617Z,7.71
2023-04-20T20:12:52.365Z,7.71
2023-04-20T20:15:21.145Z,7.64
2023-04-20T20:17:49.792Z,7.59
2023-04-20T20:20:18.857Z,7.58
2023-04-20T20:22:49.885Z,7.46
2023-04-20T20:25:20.032Z,7.59
2023-04-20T20:27:48.889Z,7.55
2023-04-20T20:30:17.629Z,7.56
2023-04-20T20:32:46.846Z,7.55
2023-04-20T20:35:15.604Z,7.44
2023-04-20T20:37:45.568Z,7.48
2023-04-20T20:40:15.543Z,7.43
2023-04-20T20:42:45.608Z,7.46
2023-04-20T20:45:14.678Z,7.48
2023-04-20T20:47:44.546Z,7.45
2023-04-20T20:50:16.273Z,7.45
2023-04-20T20:52:45.003Z,7.40
2023-04-20T20:55:13.730Z,7.39
2023-04-20T20:57:42.603Z,7.44
2023-04-20T21:00:12.194Z,7.36
2023-04-20T21:02:41.170Z,7.41
2023-04-20T21:05:10.143Z,7.36
2023-04-20T21:07:39.312Z,7.34
2023-04-20T21:10:08.518Z,7.35
2023-04-20T21:12:37.305Z,7.32
2023-04-20T21:15:06.928Z,7.25
2023-04-20T21:17:35.685Z,7.23
2023-04-20T21:20:05.969Z,7.24
2023-04-20T21:22:34.600Z,7.30
2023-04-20T21:25:04.078Z,7.40
2023-04-20T21:27:32.796Z,7.43
2023-04-20T21:30:01.465Z,7.40
2023-04-20T21:32:30.150Z,7.30
2023-04-20T21:34:58.826Z,7.44
2023-04-20T21:37:27.534Z,7.45
2023-04-20T21:39:56.225Z,7.41
2023-04-20T21:42:25.075Z,7.39
2023-04-20T21:44:53.975Z,7.38
2023-04-20T21:47:22.690Z,7.41
2023-04-20T21:49:51.370Z,7.38
2023-04-20T21:52:20.051Z,7.42
2023-04-20T21:54:48.701Z,7.41
2023-04-20T21:57:17.339Z,7.36
2023-04-20T21:59:46.024Z,7.33
2023-04-20T22:02:14.752Z,7.39
2023-04-20T22:04:43.540Z,7.40
2023-04-20T22:07:12.298Z,7.44
2023-04-20T22:09:40.992Z,7.42
2023-04-20T22:12:09.674Z,7.41
2023-04-20T22:14:38.306Z,7.43
2023-04-20T22:17:09.770Z,7.35
2023-04-20T22:19:38.407Z,7.37
2023-04-20T22:22:07.048Z,7.40
2023-04-20T22:24:35.698Z,7.41
2023-04-20T22:27:04.549Z,7.36
2023-04-20T22:29:33.205Z,7.40
2023-04-20T22:32:01.874Z,7.39
2023-04-20T22:34:30.874Z,7.39
2023-04-20T22:36:59.529Z,7.38
2023-04-20T22:39:28.313Z,7.39
2023-04-20T22:41:57.189Z,7.40
2023-04-20T22:44:25.847Z,7.41
2023-04-20T22:46:54.671Z,7.39
2023-04-20T22:49:26.023Z,7.41
2023-04-20T22:51:57.182Z,7.39
2023-04-20T22:54:25.903Z,7.45
2023-04-20T22:56:54.661Z,7.46
2023-04-20T22:59:23.373Z,7.46
2023-04-20T23:01:52.110Z,7.51
2023-04-20T23:04:30.131Z,7.52
2023-04-20T23:07:08.584Z,7.49
2023-04-20T23:09:44.263Z,7.60
2023-04-20T23:12:20.969Z,7.60
2023-04-20T23:14:50.970Z,7.60
2023-04-20T23:17:19.833Z,7.57
2023-04-20T23:19:48.483Z,7.57
2023-04-20T23:22:17.116Z,7.54
2023-04-20T23:24:45.764Z,7.63
2023-04-20T23:27:14.466Z,7.64
2023-04-20T23:29:43.169Z,7.68
2023-04-20T23:32:11.928Z,7.73
2023-04-20T23:34:40.715Z,7.72
2023-04-20T23:37:09.421Z,7.75
2023-04-20T23:39:38.624Z,7.78
2023-04-20T23:42:07.345Z,7.81
2023-04-20T23:44:36.049Z,7.80
2023-04-20T23:47:05.198Z,7.82
2023-04-20T23:49:33.956Z,7.86
2023-04-20T23:52:03.341Z,7.83
2023-04-20T23:54:33.401Z,7.85
2023-04-20T23:57:02.883Z,7.83
2023-04-20T23:59:31.497Z,7.85
